createdAt,value
2023-01-21T00:00:54.885Z,12.75
2023-01-21T00:03:21.358Z,15.75
2023-01-21T00:05:47.992Z,21.50
2023-01-21T00:08:14.411Z,17.50
2023-01-21T00:10:40.900Z,19.50
2023-01-21T00:13:07.298Z,18.50
2023-01-21T00:15:34.978Z,22.67
2023-01-21T00:18:01.357Z,24.50
2023-01-21T00:20:27.734Z,17.75
2023-01-21T00:22:54.158Z,7.00
2023-01-21T00:25:21.018Z,13.25
2023-01-21T00:27:47.492Z,15.75
2023-01-21T00:30:14.345Z,10.67
2023-01-21T00:32:40.797Z,16.75
2023-01-21T00:35:07.715Z,12.67
2023-01-21T00:37:34.297Z,13.00
2023-01-21T00:40:01.082Z,12.33
2023-01-21T00:42:29.895Z,13.67
2023-01-21T00:44:57.480Z,12.00
2023-01-21T00:47:24.455Z,13.67
2023-01-21T00:49:50.994Z,11.33
2023-01-21T00:52:17.443Z,12.33
2023-01-21T00:54:44.436Z,15.00
2023-01-21T00:57:10.892Z,12.00
2023-01-21T00:59:37.536Z,9.75
2023-01-21T01:02:03.879Z,13.67
2023-01-21T01:04:30.318Z,16.50
2023-01-21T01:06:56.754Z,14.33
2023-01-21T01:09:23.266Z,10.67
2023-01-21T01:11:49.565Z,17.75
2023-01-21T01:14:15.910Z,13.33
2023-01-21T01:16:42.303Z,12.75
2023-01-21T01:19:09.673Z,15.25
2023-01-21T01:21:36.089Z,18.75
2023-01-21T01:24:03.313Z,14.75
2023-01-21T01:26:29.820Z,18.25
2023-01-21T01:28:56.167Z,18.25
2023-01-21T01:31:22.822Z,7.00
2023-01-21T01:33:49.314Z,14.75
2023-01-21T01:36:17.715Z,14.50
2023-01-21T01:38:44.297Z,8.33
2023-01-21T01:41:19.122Z,18.75
2023-01-21T01:43:58.085Z,15.75
2023-01-21T01:46:26.026Z,9.50
2023-01-21T01:48:58.450Z,8.75
2023-01-21T01:51:34.126Z,18.00
2023-01-21T01:54:00.767Z,19.75
2023-01-21T01:56:28.385Z,29.50
2023-01-21T01:58:54.976Z,24.50
2023-01-21T02:01:22.105Z,24.50
2023-01-21T02:03:54.395Z,25.00
2023-01-21T02:06:20.875Z,15.25
2023-01-21T02:08:47.822Z,23.25
2023-01-21T02:11:18.564Z,23.75
2023-01-21T02:13:47.988Z,17.00
2023-01-21T02:16:33.357Z,19.25
2023-01-21T02:19:29.737Z,14.50
2023-01-21T02:22:02.537Z,11.75
2023-01-21T02:24:31.891Z,23.25
2023-01-21T02:27:15.476Z,15.25
2023-01-21T02:30:00.881Z,15.00
2023-01-21T02:32:38.471Z,19.00
2023-01-21T02:35:17.213Z,17.25
2023-01-21T02:37:54.191Z,14.25
2023-01-21T02:40:23.277Z,5.50
2023-01-21T02:43:05.632Z,7.50
2023-01-21T02:45:35.422Z,15.25
2023-01-21T02:48:10.920Z,12.00
2023-01-21T02:50:47.864Z,15.50
2023-01-21T02:53:25.742Z,6.00
2023-01-21T02:55:52.244Z,12.00
2023-01-21T02:58:21.751Z,15.75
2023-01-21T03:00:48.251Z,18.00
2023-01-21T03:03:23.591Z,11.00
2023-01-21T03:06:08.250Z,23.75
2023-01-21T03:08:37.419Z,12.50
2023-01-21T03:11:09.885Z,16.75
2023-01-21T03:14:00.490Z,18.25
2023-01-21T03:16:49.790Z,14.25
2023-01-21T03:19:18.461Z,61.25
2023-01-21T03:21:46.571Z,13.25
2023-01-21T03:24:14.569Z,20.50
2023-01-21T03:26:52.433Z,14.75
2023-01-21T03:29:22.548Z,15.00
2023-01-21T03:31:51.816Z,9.50
2023-01-21T03:34:19.511Z,13.50
2023-01-21T03:36:53.215Z,11.00
2023-01-21T03:39:34.956Z,13.75
2023-01-21T03:42:02.230Z,18.00
2023-01-21T03:44:28.639Z,10.75
2023-01-21T03:47:00.304Z,10.75
2023-01-21T03:49:29.598Z,9.00
2023-01-21T03:51:57.638Z,17.75
2023-01-21T03:54:24.060Z,15.25
2023-01-21T03:56:50.449Z,15.00
2023-01-21T03:59:16.847Z,12.50
2023-01-21T04:01:43.346Z,17.75
2023-01-21T04:04:10.215Z,18.25
2023-01-21T04:06:39.557Z,13.50
2023-01-21T04:09:06.901Z,21.25
2023-01-21T04:11:34.214Z,13.00
2023-01-21T04:14:00.742Z,23.50
2023-01-21T04:16:27.134Z,14.75
2023-01-21T04:18:54.132Z,20.25
2023-01-21T04:21:20.551Z,19.00
2023-01-21T04:23:47.028Z,13.25
2023-01-21T04:26:13.448Z,20.50
2023-01-21T04:28:39.822Z,9.25
2023-01-21T04:31:06.334Z,13.00
2023-01-21T04:33:32.867Z,10.00
2023-01-21T04:35:59.697Z,15.25
2023-01-21T04:38:26.530Z,10.75
2023-01-21T04:40:53.372Z,11.25
2023-01-21T04:43:19.953Z,9.00
2023-01-21T04:45:46.398Z,6.75
2023-01-21T04:48:12.753Z,6.75
2023-01-21T04:50:39.169Z,10.00
2023-01-21T04:53:05.568Z,9.50
2023-01-21T04:55:32.074Z,6.75
2023-01-21T04:57:58.447Z,23.00
2023-01-21T05:00:25.010Z,29.00
2023-01-21T05:02:51.403Z,18.75
2023-01-21T05:05:17.832Z,11.50
2023-01-21T05:07:44.168Z,10.00
2023-01-21T05:10:15.223Z,13.25
2023-01-21T05:12:41.692Z,15.75
2023-01-21T05:15:08.471Z,7.00
2023-01-21T05:17:34.978Z,5.50
2023-01-21T05:20:01.381Z,11.75
2023-01-21T05:22:27.963Z,9.00
2023-01-21T05:24:54.424Z,3.00
2023-01-21T05:27:21.789Z,6.33
2023-01-21T05:29:48.486Z,6.50
2023-01-21T05:32:14.921Z,8.25
2023-01-21T05:34:41.242Z,9.50
2023-01-21T05:37:07.628Z,3.00
2023-01-21T05:39:33.947Z,7.00
2023-01-21T05:42:00.249Z,7.50
2023-01-21T05:44:26.803Z,9.25
2023-01-21T05:46:53.242Z,16.50
2023-01-21T05:49:19.832Z,13.00
2023-01-21T05:51:46.216Z,15.25
2023-01-21T05:54:12.721Z,9.25
2023-01-21T05:56:43.378Z,9.50
2023-01-21T05:59:09.814Z,10.00
2023-01-21T06:01:36.837Z,12.25
2023-01-21T06:04:03.299Z,6.50
2023-01-21T06:06:29.735Z,9.25
2023-01-21T06:08:56.210Z,9.25
2023-01-21T06:11:22.926Z,11.25
2023-01-21T06:13:49.314Z,7.00
2023-01-21T06:16:15.816Z,5.50
2023-01-21T06:18:42.208Z,11.50
2023-01-21T06:21:08.582Z,10.00
2023-01-21T06:23:37.672Z,10.00
2023-01-21T06:26:04.292Z,6.75
2023-01-21T06:28:30.710Z,6.25
2023-01-21T06:30:57.201Z,11.75
2023-01-21T06:33:23.762Z,4.00
2023-01-21T06:35:50.195Z,11.50
2023-01-21T06:38:16.669Z,8.50
2023-01-21T06:40:43.330Z,9.00
2023-01-21T06:43:09.908Z,12.50
2023-01-21T06:45:36.276Z,6.25
2023-01-21T06:48:02.788Z,1.00
2023-01-21T06:50:29.228Z,8.75
2023-01-21T06:52:55.596Z,6.00
2023-01-21T06:55:21.950Z,8.50
2023-01-21T06:57:48.346Z,31.50
2023-01-21T07:00:15.309Z,12.75
2023-01-21T07:02:41.899Z,14.75
2023-01-21T07:05:08.321Z,32.25
2023-01-21T07:07:34.739Z,2.75
2023-01-21T07:10:01.123Z,21.50
2023-01-21T07:12:27.476Z,23.25
2023-01-21T07:14:53.868Z,22.00
2023-01-21T07:17:21.567Z,31.50
2023-01-21T07:19:47.909Z,26.50
2023-01-21T07:22:14.257Z,23.00
2023-01-21T07:24:40.679Z,16.00
2023-01-21T07:27:07.126Z,33.75
2023-01-21T07:29:33.607Z,23.00
2023-01-21T07:32:00.058Z,29.25
2023-01-21T07:34:26.489Z,37.00
2023-01-21T07:36:52.785Z,21.75
2023-01-21T07:39:19.301Z,30.00
2023-01-21T07:41:45.835Z,42.25
2023-01-21T07:44:12.248Z,29.50
2023-01-21T07:46:38.853Z,29.00
2023-01-21T07:49:05.328Z,30.00
2023-01-21T07:51:31.736Z,29.50
2023-01-21T07:53:58.624Z,15.75
2023-01-21T07:56:26.866Z,8.50
2023-01-21T07:58:53.488Z,16.50
2023-01-21T08:01:19.934Z,32.25
2023-01-21T08:03:46.382Z,24.00
2023-01-21T08:06:12.784Z,35.75
2023-01-21T08:08:39.182Z,49.25
2023-01-21T08:11:05.519Z,33.25
2023-01-21T08:13:31.881Z,71.50
2023-01-21T08:15:58.503Z,51.50
2023-01-21T08:18:25.343Z,40.00
2023-01-21T08:20:55.649Z,21.00
2023-01-21T08:23:22.200Z,47.25
2023-01-21T08:25:48.598Z,78.50
2023-01-21T08:28:15.053Z,40.00
2023-01-21T08:30:41.526Z,21.75
2023-01-21T08:33:07.961Z,32.75
2023-01-21T08:35:34.905Z,46.50
2023-01-21T08:38:01.692Z,28.50
2023-01-21T08:40:28.178Z,29.75
2023-01-21T08:42:58.655Z,21.50
2023-01-21T08:45:25.479Z,42.25
2023-01-21T08:47:51.965Z,28.00
2023-01-21T08:50:18.365Z,28.75
2023-01-21T08:52:50.210Z,36.50
2023-01-21T08:55:16.863Z,34.25
2023-01-21T08:57:43.464Z,22.25
2023-01-21T09:00:10.138Z,23.50
2023-01-21T09:02:36.518Z,23.00
2023-01-21T09:05:02.974Z,19.75
2023-01-21T09:07:29.305Z,21.25
2023-01-21T09:09:55.598Z,29.00
2023-01-21T09:12:22.021Z,9.25
2023-01-21T09:14:48.327Z,18.50
2023-01-21T09:17:14.756Z,23.75
2023-01-21T09:19:41.642Z,42.00
2023-01-21T09:22:09.465Z,20.50
2023-01-21T09:24:35.879Z,18.25
2023-01-21T09:27:02.232Z,30.75
2023-01-21T09:29:28.687Z,31.25
2023-01-21T09:31:55.109Z,8.00
2023-01-21T09:34:21.497Z,69.50
2023-01-21T09:36:47.823Z,52.25
2023-01-21T09:39:14.188Z,35.00
2023-01-21T09:41:46.116Z,51.50
2023-01-21T09:44:15.382Z,64.25
2023-01-21T09:46:49.334Z,24.75
2023-01-21T09:49:23.050Z,33.25
2023-01-21T09:51:54.228Z,34.00
2023-01-21T09:54:34.013Z,39.00
2023-01-21T09:57:15.459Z,24.50
2023-01-21T09:59:41.841Z,24.50
2023-01-21T10:02:15.653Z,23.50
2023-01-21T10:05:06.711Z,30.75
2023-01-21T10:07:44.398Z,19.25
2023-01-21T10:10:31.134Z,26.50
2023-01-21T10:13:06.522Z,12.75
2023-01-21T10:15:39.254Z,26.25
2023-01-21T10:18:11.789Z,25.75
2023-01-21T10:20:56.593Z,21.25
2023-01-21T10:23:27.030Z,15.50
2023-01-21T10:25:54.479Z,39.00
2023-01-21T10:28:25.631Z,16.67
2023-01-21T10:30:53.575Z,21.00
2023-01-21T10:33:21.965Z,16.67
2023-01-21T10:36:00.268Z,29.25
2023-01-21T10:38:26.784Z,82.00
2023-01-21T10:40:55.801Z,22.50
2023-01-21T10:43:28.115Z,21.00
2023-01-21T10:45:56.094Z,31.75
2023-01-21T10:48:31.526Z,19.00
2023-01-21T10:50:57.895Z,15.67
2023-01-21T10:53:38.746Z,7.00
2023-01-21T10:56:29.669Z,16.00
2023-01-21T10:58:59.131Z,5.67
2023-01-21T11:01:30.331Z,8.00
2023-01-21T11:04:04.215Z,29.75
2023-01-21T11:06:32.393Z,34.50
2023-01-21T11:09:00.915Z,37.50
2023-01-21T11:11:29.798Z,37.25
2023-01-21T11:13:56.214Z,11.00
2023-01-21T11:16:43.478Z,16.33
2023-01-21T11:19:12.183Z,20.00
2023-01-21T11:21:40.122Z,32.00
2023-01-21T11:24:23.261Z,36.00
2023-01-21T11:26:50.936Z,14.67
2023-01-21T11:29:18.559Z,12.33
2023-01-21T11:31:48.569Z,18.00
2023-01-21T11:34:17.333Z,17.67
2023-01-21T11:37:00.909Z,11.00
2023-01-21T11:39:28.877Z,20.67
2023-01-21T11:41:57.216Z,21.67
2023-01-21T11:44:24.132Z,19.33
2023-01-21T11:46:51.188Z,15.00
2023-01-21T11:49:24.857Z,35.00
2023-01-21T11:51:51.990Z,31.50
2023-01-21T11:54:19.515Z,23.33
2023-01-21T11:56:59.440Z,18.67
2023-01-21T11:59:28.365Z,10.33
2023-01-21T12:02:03.917Z,20.67
2023-01-21T12:04:31.090Z,22.50
2023-01-21T12:07:00.528Z,29.00
2023-01-21T12:09:28.168Z,42.25
2023-01-21T12:12:13.974Z,24.00
2023-01-21T12:14:47.516Z,31.50
2023-01-21T12:17:52.508Z,29.25
2023-01-21T12:20:21.967Z,35.75
2023-01-21T12:23:03.813Z,35.00
2023-01-21T12:25:30.213Z,29.00
2023-01-21T12:28:15.448Z,22.00
2023-01-21T12:30:55.128Z,23.50
2023-01-21T12:33:24.412Z,29.25
2023-01-21T12:35:54.234Z,19.50
2023-01-21T12:38:33.600Z,25.33
2023-01-21T12:41:04.333Z,22.00
2023-01-21T12:43:34.017Z,34.50
2023-01-21T12:46:04.281Z,28.50
2023-01-21T12:48:35.056Z,22.33
2023-01-21T12:51:04.658Z,23.33
2023-01-21T12:53:49.159Z,19.33
2023-01-21T12:56:34.124Z,19.00
2023-01-21T12:59:04.033Z,25.33
2023-01-21T13:01:33.484Z,21.33
2023-01-21T13:04:04.288Z,20.33
2023-01-21T13:06:53.561Z,24.67
2023-01-21T13:09:39.636Z,30.33
2023-01-21T13:12:11.663Z,23.67
2023-01-21T13:14:40.927Z,24.00
2023-01-21T13:17:19.221Z,32.00
2023-01-21T13:19:45.666Z,39.00
2023-01-21T13:22:21.579Z,50.25
2023-01-21T13:25:06.986Z,61.00
2023-01-21T13:27:53.699Z,65.00
2023-01-21T13:30:20.278Z,31.75
2023-01-21T13:32:52.966Z,53.00
2023-01-21T13:35:31.817Z,39.67
2023-01-21T13:38:16.727Z,47.25
2023-01-21T13:41:06.327Z,29.50
2023-01-21T13:43:55.143Z,30.33
2023-01-21T13:46:39.450Z,69.75
2023-01-21T13:49:09.020Z,11.33
2023-01-21T13:51:54.229Z,16.00
2023-01-21T13:54:40.481Z,26.00
2023-01-21T13:57:06.926Z,19.33
2023-01-21T13:59:42.675Z,13.67
2023-01-21T14:02:14.967Z,23.00
2023-01-21T14:04:44.310Z,16.33
2023-01-21T14:07:22.687Z,31.00
2023-01-21T14:10:10.168Z,24.67
2023-01-21T14:12:44.196Z,33.33
2023-01-21T14:15:39.802Z,19.00
2023-01-21T14:18:12.390Z,17.67
2023-01-21T14:20:50.938Z,14.33
2023-01-21T14:23:23.319Z,9.33
2023-01-21T14:25:49.719Z,15.00
2023-01-21T14:28:39.077Z,18.33
2023-01-21T14:31:14.657Z,13.33
2023-01-21T14:33:46.560Z,17.00
2023-01-21T14:36:28.668Z,20.33
2023-01-21T14:39:03.590Z,19.00
2023-01-21T14:41:48.695Z,26.00
2023-01-21T14:44:38.115Z,37.75
2023-01-21T14:47:11.351Z,61.25
2023-01-21T14:49:42.453Z,103.25
2023-01-21T14:52:12.915Z,74.75
2023-01-21T14:54:42.163Z,64.50
2023-01-21T14:57:26.631Z,104.50
2023-01-21T14:59:54.812Z,94.25
2023-01-21T15:02:29.586Z,90.75
2023-01-21T15:05:00.676Z,94.25
2023-01-21T15:07:33.943Z,105.75
2023-01-21T15:10:02.547Z,89.50
2023-01-21T15:12:31.575Z,82.00
2023-01-21T15:15:02.573Z,21.75
2023-01-21T15:17:47.907Z,14.33
2023-01-21T15:20:34.568Z,14.33
2023-01-21T15:23:24.006Z,18.00
2023-01-21T15:26:12.325Z,17.33
2023-01-21T15:28:43.806Z,18.33
2023-01-21T15:31:23.570Z,17.00
2023-01-21T15:34:01.791Z,16.67
2023-01-21T15:36:31.082Z,18.00
2023-01-21T15:39:01.983Z,22.33
2023-01-21T15:41:36.838Z,24.50
2023-01-21T15:44:03.211Z,51.50
2023-01-21T15:46:37.576Z,33.50
2023-01-21T15:49:09.677Z,69.75
2023-01-21T15:51:54.858Z,57.50
2023-01-21T15:54:24.302Z,24.00
2023-01-21T15:56:53.706Z,13.00
2023-01-21T15:59:29.379Z,15.33
2023-01-21T16:02:22.104Z,18.00
2023-01-21T16:04:48.489Z,28.00
2023-01-21T16:07:25.096Z,19.67
2023-01-21T16:10:09.467Z,17.33
2023-01-21T16:12:48.031Z,16.33
2023-01-21T16:15:20.333Z,27.50
2023-01-21T16:17:59.246Z,17.25
2023-01-21T16:20:25.813Z,20.33
2023-01-21T16:22:54.765Z,24.25
2023-01-21T16:25:22.966Z,15.67
2023-01-21T16:27:51.116Z,21.33
2023-01-21T16:30:28.317Z,14.00
2023-01-21T16:33:10.797Z,20.33
2023-01-21T16:35:48.339Z,18.33
2023-01-21T16:38:15.780Z,25.00
2023-01-21T16:40:42.315Z,20.50
2023-01-21T16:43:15.313Z,24.00
2023-01-21T16:45:47.499Z,26.50
2023-01-21T16:48:22.263Z,21.33
2023-01-21T16:50:48.953Z,19.00
2023-01-21T16:53:16.814Z,24.25
2023-01-21T16:55:44.132Z,22.75
2023-01-21T16:58:19.446Z,28.00
2023-01-21T17:00:57.443Z,23.67
2023-01-21T17:03:24.313Z,26.25
2023-01-21T17:05:53.111Z,31.75
2023-01-21T17:08:19.517Z,30.00
2023-01-21T17:10:55.009Z,37.25
2023-01-21T17:13:22.174Z,42.50
2023-01-21T17:16:00.758Z,50.75
2023-01-21T17:18:27.250Z,47.75
2023-01-21T17:21:02.278Z,62.50
2023-01-21T17:23:34.956Z,62.00
2023-01-21T17:26:08.467Z,34.50
2023-01-21T17:28:57.671Z,66.75
2023-01-21T17:31:27.249Z,63.50
2023-01-21T17:34:01.119Z,59.25
2023-01-21T17:36:35.862Z,46.25
2023-01-21T17:39:03.325Z,33.25
2023-01-21T17:41:34.569Z,31.50
2023-01-21T17:44:02.762Z,34.00
2023-01-21T17:46:29.875Z,46.25
2023-01-21T17:48:58.973Z,48.00
2023-01-21T17:51:27.155Z,52.75
2023-01-21T17:53:55.495Z,46.75
2023-01-21T17:56:38.925Z,45.00
2023-01-21T17:59:24.787Z,51.25
2023-01-21T18:01:51.361Z,51.00
2023-01-21T18:04:17.893Z,50.75
2023-01-21T18:06:45.152Z,64.00
2023-01-21T18:09:15.340Z,60.25
2023-01-21T18:11:42.715Z,56.00
2023-01-21T18:14:13.680Z,49.75
2023-01-21T18:16:40.205Z,53.25
2023-01-21T18:19:09.292Z,54.50
2023-01-21T18:21:35.792Z,56.00
2023-01-21T18:24:02.307Z,63.25
2023-01-21T18:26:32.589Z,71.00
2023-01-21T18:28:59.085Z,58.75
2023-01-21T18:31:25.713Z,73.00
2023-01-21T18:33:52.203Z,71.25
2023-01-21T18:36:21.367Z,75.00
2023-01-21T18:38:49.384Z,52.75
2023-01-21T18:41:15.813Z,59.75
2023-01-21T18:43:42.319Z,66.25
2023-01-21T18:46:13.311Z,60.50
2023-01-21T18:48:39.849Z,56.25
2023-01-21T18:51:06.397Z,81.00
2023-01-21T18:53:32.815Z,74.25
2023-01-21T18:55:59.373Z,74.00
2023-01-21T18:58:25.798Z,75.75
2023-01-21T19:00:52.228Z,77.25
2023-01-21T19:03:18.670Z,82.50
2023-01-21T19:05:47.627Z,81.25
2023-01-21T19:08:18.123Z,72.25
2023-01-21T19:10:44.725Z,65.75
2023-01-21T19:13:13.824Z,72.75
2023-01-21T19:18:55.004Z,69.00
2023-01-21T19:21:21.450Z,79.75
2023-01-21T19:23:47.865Z,75.00
2023-01-21T19:26:14.403Z,64.00
2023-01-21T19:28:43.044Z,66.00
2023-01-21T19:31:09.646Z,65.50
2023-01-21T19:33:36.092Z,70.00
2023-01-21T19:36:04.075Z,63.75
2023-01-21T19:38:30.557Z,74.25
2023-01-21T19:40:56.970Z,68.75
2023-01-21T19:43:23.445Z,63.50
2023-01-21T19:45:51.301Z,62.50
2023-01-21T19:48:19.114Z,66.75
2023-01-21T19:50:45.613Z,62.75
2023-01-21T19:53:15.984Z,75.00
2023-01-21T19:55:45.205Z,55.75
2023-01-21T19:58:19.736Z,89.75
2023-01-21T20:00:53.845Z,77.50
2023-01-21T20:03:22.375Z,71.50
2023-01-21T20:05:51.208Z,78.50
2023-01-21T20:08:20.688Z,73.75
2023-01-21T20:10:47.107Z,76.75
2023-01-21T20:13:14.345Z,66.00
2023-01-21T20:15:42.679Z,62.75
2023-01-21T20:18:23.126Z,57.50
2023-01-21T20:20:49.808Z,72.25
2023-01-21T20:23:16.675Z,70.00
2023-01-21T20:25:44.079Z,51.25
2023-01-21T20:28:19.526Z,55.75
2023-01-21T20:30:46.496Z,66.00
2023-01-21T20:33:14.769Z,66.50
2023-01-21T20:35:41.367Z,65.25
2023-01-21T20:38:12.311Z,71.75
2023-01-21T20:40:39.492Z,68.25
2023-01-21T20:43:05.960Z,65.50
2023-01-21T20:45:41.824Z,60.00
2023-01-21T20:48:15.305Z,77.50
2023-01-21T20:50:41.649Z,75.00
2023-01-21T20:53:10.889Z,65.75
2023-01-21T20:55:38.552Z,77.75
2023-01-21T20:58:05.365Z,68.00
2023-01-21T21:00:32.736Z,65.25
2023-01-21T21:02:59.162Z,70.75
2023-01-21T21:05:27.535Z,69.00
2023-01-21T21:07:54.533Z,38.50
2023-01-21T21:10:32.030Z,52.00
2023-01-21T21:12:58.978Z,51.50
2023-01-21T21:15:29.078Z,57.75
2023-01-21T21:17:55.748Z,63.75
2023-01-21T21:20:23.771Z,66.50
2023-01-21T21:22:50.176Z,67.75
2023-01-21T21:25:19.826Z,80.50
2023-01-21T21:27:46.558Z,85.00
2023-01-21T21:30:14.204Z,85.75
2023-01-21T21:32:40.582Z,83.25
2023-01-21T21:35:14.727Z,60.00
2023-01-21T21:37:41.104Z,32.50
2023-01-21T21:40:07.930Z,60.50
2023-01-21T21:42:53.007Z,68.25
2023-01-21T21:45:19.806Z,53.00
2023-01-21T21:48:04.920Z,65.00
2023-01-21T21:50:31.305Z,69.75
2023-01-21T21:52:57.812Z,66.75
2023-01-21T21:55:24.230Z,74.00
2023-01-21T21:57:50.555Z,49.75
2023-01-21T22:00:17.278Z,43.50
2023-01-21T22:02:43.712Z,79.75
2023-01-21T22:05:11.609Z,75.75
2023-01-21T22:07:38.824Z,80.00
2023-01-21T22:10:08.948Z,79.00
2023-01-21T22:12:35.720Z,85.50
2023-01-21T22:15:02.129Z,70.50
2023-01-21T22:17:28.580Z,78.25
2023-01-21T22:19:54.929Z,73.75
2023-01-21T22:22:21.305Z,74.50
2023-01-21T22:24:47.719Z,71.25
2023-01-21T22:27:14.763Z,72.25
2023-01-21T22:29:41.141Z,71.75
2023-01-21T22:32:07.517Z,43.00
2023-01-21T22:34:33.939Z,72.00
2023-01-21T22:37:00.299Z,77.75
2023-01-21T22:39:26.613Z,83.25
2023-01-21T22:41:55.225Z,72.25
2023-01-21T22:44:21.597Z,69.00
2023-01-21T22:46:48.117Z,62.25
2023-01-21T22:49:14.578Z,65.25
2023-01-21T22:51:40.961Z,69.75
2023-01-21T22:54:07.698Z,70.50
2023-01-21T22:56:51.144Z,71.50
2023-01-21T22:59:18.722Z,72.50
2023-01-21T23:01:45.090Z,79.75
2023-01-21T23:04:11.592Z,72.75
2023-01-21T23:06:38.046Z,69.50
2023-01-21T23:09:05.661Z,61.50
2023-01-21T23:11:34.473Z,70.50
2023-01-21T23:14:00.963Z,68.75
2023-01-21T23:16:27.367Z,66.00
2023-01-21T23:18:53.815Z,64.50
2023-01-21T23:21:21.510Z,63.75
2023-01-21T23:23:48.308Z,68.50
2023-01-21T23:26:14.761Z,73.75
2023-01-21T23:28:41.260Z,76.00
2023-01-21T23:31:09.066Z,68.00
2023-01-21T23:33:35.609Z,66.50
2023-01-21T23:36:02.541Z,75.25
2023-01-21T23:38:29.410Z,73.75
2023-01-21T23:40:58.582Z,78.00
2023-01-21T23:43:28.015Z,70.00
2023-01-21T23:45:55.040Z,61.00
2023-01-21T23:48:21.764Z,68.50
2023-01-21T23:50:48.620Z,62.50
2023-01-21T23:53:15.053Z,60.75
2023-01-21T23:55:41.649Z,68.25
2023-01-21T23:58:08.067Z,65.00
